Time,TemperatureF,DewpointF,PressureIn,WindDirection,WindDirectionDegrees,WindSpeedMPH,WindSpeedGustMPH,Humidity,HourlyPrecipIn,Conditions,Clouds,dailyrainin,SoftwareType,DateUTC
2013-09-28 00:02:00,82.6,82.6,29.81,SE,124,11.0,16.0,0,0.00,,,0.00,meteohub,2013-09-28 05:02:00,
2013-09-28 00:07:00,82.6,82.6,29.81,SE,143,8.0,16.0,0,0.00,,,0.00,meteohub,2013-09-28 05:07:00,
2013-09-28 00:12:00,82.6,82.6,29.81,SE,143,12.0,16.0,0,0.00,,,0.00,meteohub,2013-09-28 05:12:00,
2013-09-28 00:17:00,82.4,82.4,29.81,ESE,119,9.0,15.0,0,0.00,,,0.00,meteohub,2013-09-28 05:17:00,
2013-09-28 00:22:00,82.4,82.4,29.81,SE,127,10.0,17.0,0,0.00,,,0.00,meteohub,2013-09-28 05:22:00,
2013-09-28 00:28:00,82.2,82.2,29.81,SE,146,9.0,17.0,0,0.00,,,0.00,meteohub,2013-09-28 05:28:00,
2013-09-28 00:33:00,82.2,82.2,29.81,SE,130,9.0,17.0,0,0.00,,,0.00,meteohub,2013-09-28 05:33:00,
2013-09-28 00:38:00,82.2,82.2,29.81,SE,138,10.0,16.0,0,0.00,,,0.00,meteohub,2013-09-28 05:38:00,
2013-09-28 00:43:00,82.2,82.2,29.81,SE,130,13.0,14.0,0,0.00,,,0.00,meteohub,2013-09-28 05:43:00,
2013-09-28 00:48:00,82.4,82.4,29.81,SE,124,9.0,15.0,0,0.00,,,0.00,meteohub,2013-09-28 05:48:00,
2013-09-28 00:53:00,82.4,82.4,29.81,SE,124,11.0,15.0,0,0.00,,,0.00,meteohub,2013-09-28 05:53:00,
2013-09-28 00:58:00,82.4,82.4,29.81,ESE,121,15.0,19.0,0,0.00,,,0.00,meteohub,2013-09-28 05:58:00,
2013-09-28 01:03:00,82.2,82.2,29.81,SE,132,9.0,19.0,0,0.00,,,0.00,meteohub,2013-09-28 06:03:00,
2013-09-28 01:08:00,82.2,82.2,29.81,SE,138,8.0,19.0,0,0.00,,,0.00,meteohub,2013-09-28 06:08:00,
2013-09-28 01:13:00,82.2,82.2,29.81,SE,145,9.0,16.0,0,0.00,,,0.00,meteohub,2013-09-28 06:13:00,
2013-09-28 01:18:00,82.2,82.2,29.81,SE,127,11.0,16.0,0,0.00,,,0.00,meteohub,2013-09-28 06:18:00,
2013-09-28 01:24:00,82.0,82.0,29.81,SE,129,6.0,15.0,0,0.00,,,0.00,meteohub,2013-09-28 06:24:00,
2013-09-28 01:29:00,82.0,82.0,29.81,SE,127,9.0,15.0,0,0.00,,,0.00,meteohub,2013-09-28 06:29:00,
2013-09-28 01:34:00,82.0,82.0,29.81,SE,136,9.0,14.0,0,0.00,,,0.00,meteohub,2013-09-28 06:34:00,
2013-09-28 01:39:00,82.0,82.0,29.81,SE,146,6.0,16.0,0,0.00,,,0.00,meteohub,2013-09-28 06:39:00,
2013-09-28 01:44:00,82.0,82.0,29.81,SE,144,7.0,16.0,0,0.00,,,0.00,meteohub,2013-09-28 06:44:00,
2013-09-28 01:50:00,82.0,82.0,29.81,SE,137,9.0,13.0,0,0.00,,,0.00,meteohub,2013-09-28 06:50:00,
2013-09-28 01:55:00,82.0,82.0,29.81,SE,125,8.0,13.0,0,0.00,,,0.00,meteohub,2013-09-28 06:55:00,
2013-09-28 02:00:00,82.0,82.0,29.81,SE,127,9.0,12.0,0,0.00,,,0.00,meteohub,2013-09-28 07:00:00,
2013-09-28 02:05:00,82.0,82.0,29.81,ESE,115,8.0,12.0,0,0.00,,,0.00,meteohub,2013-09-28 07:05:00,
2013-09-28 02:10:00,82.0,82.0,29.81,SE,146,8.0,12.0,0,0.00,,,0.00,meteohub,2013-09-28 07:10:00,
2013-09-28 02:15:00,82.0,82.0,29.81,SE,141,8.0,14.0,0,0.00,,,0.00,meteohub,2013-09-28 07:15:00,
2013-09-28 02:20:00,82.0,82.0,29.81,ESE,120,11.0,14.0,0,0.00,,,0.00,meteohub,2013-09-28 07:20:00,
2013-09-28 02:25:00,82.0,82.0,29.81,ESE,120,7.0,14.0,0,0.00,,,0.00,meteohub,2013-09-28 07:25:00,
2013-09-28 02:30:00,81.9,81.9,29.81,SE,141,9.0,13.0,0,0.00,,,0.00,meteohub,2013-09-28 07:30:00,
2013-09-28 02:35:00,81.9,81.9,29.81,SE,143,9.0,13.0,0,0.00,,,0.00,meteohub,2013-09-28 07:35:00,
2013-09-28 02:40:00,81.9,81.9,29.81,SE,127,5.0,13.0,0,0.00,,,0.00,meteohub,2013-09-28 07:40:00,
2013-09-28 02:46:00,81.7,81.7,29.81,ESE,113,9.0,12.0,0,0.00,,,0.00,meteohub,2013-09-28 07:46:00,
2013-09-28 02:51:00,81.7,81.7,29.81,ESE,118,9.0,12.0,0,0.00,,,0.00,meteohub,2013-09-28 07:51:00,
2013-09-28 02:56:00,81.7,81.7,29.81,SSE,149,8.0,12.0,0,0.00,,,0.00,meteohub,2013-09-28 07:56:00,
2013-09-28 03:01:00,81.7,81.7,29.81,SSE,156,9.0,12.0,0,0.00,,,0.00,meteohub,2013-09-28 08:01:00,
2013-09-28 03:06:00,81.7,81.7,29.81,SSE,152,8.0,12.0,0,0.00,,,0.00,meteohub,2013-09-28 08:06:00,
2013-09-28 03:11:00,81.7,81.7,29.80,SE,146,5.0,12.0,0,0.00,,,0.00,meteohub,2013-09-28 08:11:00,
2013-09-28 03:16:00,81.7,81.7,29.81,ESE,113,6.0,12.0,0,0.00,,,0.00,meteohub,2013-09-28 08:16:00,
2013-09-28 03:21:00,81.7,81.7,29.80,ESE,115,6.0,11.0,0,0.00,,,0.00,meteohub,2013-09-28 08:21:00,
2013-09-28 03:26:00,81.7,81.7,29.81,ESE,117,6.0,10.0,0,0.00,,,0.00,meteohub,2013-09-28 08:26:00,
2013-09-28 03:31:00,81.7,81.7,29.81,SE,126,4.0,10.0,0,0.00,,,0.00,meteohub,2013-09-28 08:31:00,
2013-09-28 03:36:00,81.5,81.5,29.81,SSE,153,5.0,10.0,0,0.00,,,0.00,meteohub,2013-09-28 08:36:00,
2013-09-28 03:41:00,81.5,81.5,29.81,SE,138,7.0,8.0,0,0.00,,,0.00,meteohub,2013-09-28 08:41:00,
2013-09-28 03:46:00,81.5,81.5,29.80,SE,146,4.0,8.0,0,0.00,,,0.00,meteohub,2013-09-28 08:46:00,
2013-09-28 03:51:00,81.3,81.3,29.80,SE,134,5.0,8.0,0,0.00,,,0.00,meteohub,2013-09-28 08:51:00,
2013-09-28 03:56:00,81.3,81.3,29.80,SE,139,3.0,8.0,0,0.00,,,0.00,meteohub,2013-09-28 08:56:00,
2013-09-28 04:01:00,81.3,81.3,29.80,SE,143,4.0,8.0,0,0.00,,,0.00,meteohub,2013-09-28 09:01:00,
2013-09-28 04:07:00,81.3,81.3,29.80,SE,127,4.0,7.0,0,0.00,,,0.00,meteohub,2013-09-28 09:07:00,
2013-09-28 04:12:00,81.3,81.3,29.80,SSE,159,3.0,7.0,0,0.00,,,0.00,meteohub,2013-09-28 09:12:00,
2013-09-28 04:17:00,81.3,81.3,29.80,SE,131,4.0,8.0,0,0.00,,,0.00,meteohub,2013-09-28 09:17:00,
2013-09-28 04:22:00,81.3,81.3,29.80,SE,141,7.0,8.0,0,0.00,,,0.00,meteohub,2013-09-28 09:22:00,
2013-09-28 04:27:00,81.5,81.5,29.80,SE,128,5.0,12.0,0,0.00,,,0.00,meteohub,2013-09-28 09:27:00,
2013-09-28 04:32:00,81.7,81.7,29.80,SE,133,6.0,12.0,0,0.00,,,0.00,meteohub,2013-09-28 09:32:00,
2013-09-28 04:37:00,81.7,81.7,29.80,SE,134,5.0,12.0,0,0.00,,,0.00,meteohub,2013-09-28 09:37:00,
2013-09-28 04:42:00,81.9,81.9,29.80,SSE,148,6.0,11.0,0,0.00,,,0.00,meteohub,2013-09-28 09:42:00,
2013-09-28 04:47:00,81.9,81.9,29.80,SSE,159,6.0,11.0,0,0.00,,,0.00,meteohub,2013-09-28 09:47:00,
2013-09-28 04:52:00,81.9,81.9,29.80,SSE,149,5.0,10.0,0,0.00,,,0.00,meteohub,2013-09-28 09:52:00,
2013-09-28 04:57:00,81.9,81.9,29.80,SE,134,6.0,10.0,0,0.00,,,0.00,meteohub,2013-09-28 09:57:00,
2013-09-28 05:02:00,81.9,81.9,29.80,SE,144,4.0,10.0,0,0.00,,,0.00,meteohub,2013-09-28 10:02:00,
2013-09-28 05:07:00,81.7,81.7,29.80,SSE,150,3.0,9.0,0,0.00,,,0.00,meteohub,2013-09-28 10:07:00,
2013-09-28 05:12:00,81.7,81.7,29.80,SSE,163,3.0,9.0,0,0.00,,,0.00,meteohub,2013-09-28 10:12:00,
2013-09-28 05:17:00,81.7,81.7,29.80,SE,129,6.0,9.0,0,0.00,,,0.00,meteohub,2013-09-28 10:17:00,
2013-09-28 05:22:00,81.5,81.5,29.81,SE,143,6.0,9.0,0,0.00,,,0.00,meteohub,2013-09-28 10:22:00,
2013-09-28 05:27:00,81.3,81.3,29.81,ESE,123,6.0,9.0,0,0.00,,,0.00,meteohub,2013-09-28 10:27:00,
2013-09-28 05:32:00,80.4,80.4,29.81,SE,137,5.0,10.0,0,0.00,,,0.00,meteohub,2013-09-28 10:32:00,
2013-09-28 05:37:00,80.4,80.4,29.81,North,-999,-999.0,10.0,0,0.00,,,0.00,meteohub,2013-09-28 10:37:00,
2013-09-28 05:42:00,80.4,80.4,29.81,North,-999,-999.0,8.0,0,0.00,,,0.00,meteohub,2013-09-28 10:42:00,
2013-09-28 07:46:00,80.2,80.2,29.83,North,-999,-999.0,-999.0,0,-99.99,,,0.00,meteohub,2013-09-28 12:46:00,
2013-09-28 07:51:00,80.2,80.2,29.83,North,-999,-999.0,-999.0,0,0.00,,,0.00,meteohub,2013-09-28 12:51:00,
2013-09-28 07:56:00,80.6,80.6,29.83,SE,129,4.0,7.0,0,0.00,,,0.00,meteohub,2013-09-28 12:56:00,
2013-09-28 08:02:00,81.0,81.0,29.83,ESE,113,5.0,9.0,0,0.00,,,0.00,meteohub,2013-09-28 13:02:00,
2013-09-28 08:07:00,81.0,81.0,29.83,ESE,108,2.0,9.0,0,0.00,,,0.00,meteohub,2013-09-28 13:07:00,
2013-09-28 08:12:00,81.1,81.1,29.83,ESE,117,4.0,9.0,0,0.00,,,0.00,meteohub,2013-09-28 13:12:00,
2013-09-28 08:17:00,81.3,81.3,29.84,SE,134,7.0,8.0,0,0.00,,,0.00,meteohub,2013-09-28 13:17:00,
2013-09-28 08:22:00,81.7,81.7,29.84,SE,132,5.0,8.0,0,0.00,,,0.00,meteohub,2013-09-28 13:22:00,
2013-09-28 08:27:00,81.7,81.7,29.84,ESE,119,7.0,10.0,0,0.00,,,0.00,meteohub,2013-09-28 13:27:00,
2013-09-28 08:32:00,82.0,82.0,29.84,SE,131,7.0,10.0,0,0.00,,,0.00,meteohub,2013-09-28 13:32:00,
2013-09-28 08:37:00,82.2,82.2,29.84,SE,138,8.0,13.0,0,0.00,,,0.00,meteohub,2013-09-28 13:37:00,
2013-09-28 08:42:00,82.6,82.6,29.84,ESE,120,0.0,13.0,0,0.00,,,0.00,meteohub,2013-09-28 13:42:00,
2013-09-28 08:47:00,82.8,82.8,29.85,ESE,121,0.0,13.0,0,0.00,,,0.00,meteohub,2013-09-28 13:47:00,
2013-09-28 08:52:00,83.1,83.1,29.85,ESE,121,11.0,13.0,0,0.00,,,0.00,meteohub,2013-09-28 13:52:00,
2013-09-28 08:57:00,83.5,83.5,29.85,SE,130,8.0,15.0,0,0.00,,,0.00,meteohub,2013-09-28 13:57:00,
2013-09-28 09:02:00,83.8,83.8,29.85,ESE,119,10.0,15.0,0,0.00,,,0.00,meteohub,2013-09-28 14:02:00,
2013-09-28 09:07:00,83.8,83.8,29.85,SE,134,11.0,15.0,0,0.00,,,0.00,meteohub,2013-09-28 14:07:00,
2013-09-28 09:12:00,84.6,84.6,29.85,SE,135,4.0,15.0,0,0.00,,,0.00,meteohub,2013-09-28 14:12:00,
2013-09-28 09:17:00,84.9,84.9,29.85,SE,135,10.0,15.0,0,0.00,,,0.00,meteohub,2013-09-28 14:17:00,
2013-09-28 09:22:00,84.9,84.9,29.85,SE,141,0.0,14.0,0,0.00,,,0.00,meteohub,2013-09-28 14:22:00,
2013-09-28 09:27:00,85.3,85.3,29.85,SE,124,4.0,14.0,0,0.00,,,0.00,meteohub,2013-09-28 14:27:00,
2013-09-28 09:32:00,85.5,-25.8,29.85,SE,134,0.0,14.0,1,0.00,,,0.00,meteohub,2013-09-28 14:32:00,
2013-09-28 09:37:00,85.6,7.0,29.85,SSE,152,3.0,14.0,5,0.00,,,0.00,meteohub,2013-09-28 14:37:00,
2013-09-28 09:42:00,85.6,25.2,29.85,SSE,149,8.0,16.0,11,0.00,,,0.00,meteohub,2013-09-28 14:42:00,
2013-09-28 09:47:00,86.0,34.5,29.85,SSE,165,12.0,16.0,16,0.00,,,0.00,meteohub,2013-09-28 14:47:00,
2013-09-28 09:52:00,86.2,40.5,29.85,SE,134,12.0,17.0,20,0.00,,,0.00,meteohub,2013-09-28 14:52:00,
2013-09-28 09:57:00,86.5,50.5,29.85,SSE,150,15.0,17.0,29,0.00,,,0.00,meteohub,2013-09-28 14:57:00,
2013-09-28 10:02:00,86.5,54.0,29.85,SE,141,12.0,20.0,33,0.00,,,0.00,meteohub,2013-09-28 15:02:00,
2013-09-28 10:07:00,86.7,57.4,29.86,SSE,149,11.0,20.0,37,0.00,,,0.00,meteohub,2013-09-28 15:07:00,
2013-09-28 10:12:00,87.1,56.1,29.86,ESE,123,8.0,20.0,35,0.00,,,0.00,meteohub,2013-09-28 15:12:00,
2013-09-28 10:17:00,87.6,61.0,29.86,SE,130,14.0,22.0,41,0.00,,,0.00,meteohub,2013-09-28 15:17:00,
2013-09-28 10:22:00,88.0,64.0,29.86,SE,124,13.0,22.0,45,0.00,,,0.00,meteohub,2013-09-28 15:22:00,
2013-09-28 10:27:00,88.2,63.5,29.86,South,181,12.0,22.0,44,0.00,,,0.00,meteohub,2013-09-28 15:27:00,
2013-09-28 10:32:00,88.2,62.8,29.86,SE,127,17.0,20.0,43,0.00,,,0.00,meteohub,2013-09-28 15:32:00,
2013-09-28 10:37:00,88.3,69.1,29.86,SSE,164,16.0,22.0,53,0.00,,,0.00,meteohub,2013-09-28 15:37:00,
2013-09-28 10:42:00,88.5,69.3,29.86,SSE,164,19.0,23.0,53,0.00,,,0.00,meteohub,2013-09-28 15:42:00,
2013-09-28 10:47:00,88.5,70.3,29.86,ESE,109,15.0,25.0,55,0.00,,,0.00,meteohub,2013-09-28 15:47:00,
2013-09-28 10:52:00,88.7,70.5,29.86,South,169,8.0,25.0,55,0.00,,,0.00,meteohub,2013-09-28 15:52:00,
2013-09-28 10:57:00,89.1,72.3,29.86,SE,143,16.0,25.0,58,0.00,,,0.00,meteohub,2013-09-28 15:57:00,
2013-09-28 11:02:00,89.4,73.2,29.86,SSE,156,7.0,21.0,59,0.00,,,0.00,meteohub,2013-09-28 16:02:00,
2013-09-28 11:07:00,89.2,72.0,29.86,ESE,121,12.0,21.0,57,0.00,,,0.00,meteohub,2013-09-28 16:07:00,
2013-09-28 11:12:00,89.8,72.5,29.86,SSE,149,12.0,21.0,57,0.00,,,0.00,meteohub,2013-09-28 16:12:00,
2013-09-28 11:17:00,89.4,72.1,29.86,South,181,5.0,21.0,57,0.00,,,0.00,meteohub,2013-09-28 16:17:00,
2013-09-28 11:22:00,89.8,73.0,29.86,SSE,149,17.0,20.0,58,0.00,,,0.00,meteohub,2013-09-28 16:22:00,
2013-09-28 11:27:00,90.1,74.8,29.86,SE,143,12.0,22.0,61,0.00,,,0.00,meteohub,2013-09-28 16:27:00,
2013-09-28 11:32:00,90.0,73.8,29.86,South,174,10.0,22.0,59,0.00,,,0.00,meteohub,2013-09-28 16:32:00,
2013-09-28 11:37:00,90.0,74.7,29.86,ESE,119,14.0,23.0,61,0.00,,,0.00,meteohub,2013-09-28 16:37:00,
2013-09-28 11:42:00,90.1,74.8,29.86,South,169,14.0,23.0,61,0.00,,,0.00,meteohub,2013-09-28 16:42:00,
2013-09-28 11:47:00,90.3,75.6,29.86,SSE,156,13.0,23.0,62,0.00,,,0.00,meteohub,2013-09-28 16:47:00,
2013-09-28 11:52:00,90.9,76.1,29.86,SE,127,11.0,22.0,62,0.00,,,0.00,meteohub,2013-09-28 16:52:00,
2013-09-28 11:57:00,90.7,75.9,29.86,SE,134,11.0,21.0,62,0.00,,,0.00,meteohub,2013-09-28 16:57:00,
2013-09-28 12:02:00,90.7,75.9,29.86,East,96,11.0,21.0,62,0.00,,,0.00,meteohub,2013-09-28 17:02:00,
2013-09-28 12:07:00,90.7,75.9,29.86,SE,124,8.0,21.0,62,0.00,,,0.00,meteohub,2013-09-28 17:07:00,
2013-09-28 12:12:00,90.3,75.6,29.86,SE,146,16.0,20.0,62,0.00,,,0.00,meteohub,2013-09-28 17:12:00,
2013-09-28 12:17:00,91.0,76.6,29.86,SE,141,13.0,22.0,63,0.00,,,0.00,meteohub,2013-09-28 17:17:00,
2013-09-28 12:22:00,90.9,76.1,29.86,SE,124,10.0,22.0,62,0.00,,,0.00,meteohub,2013-09-28 17:22:00,
2013-09-28 12:27:00,90.7,76.3,29.86,SSE,160,9.0,22.0,63,0.00,,,0.00,meteohub,2013-09-28 17:27:00,
2013-09-28 12:32:00,90.7,76.3,29.86,SE,134,10.0,21.0,63,0.00,,,0.00,meteohub,2013-09-28 17:32:00,
2013-09-28 12:37:00,90.1,75.4,29.86,SE,136,12.0,19.0,62,0.00,,,0.00,meteohub,2013-09-28 17:37:00,
2013-09-28 12:42:00,90.3,75.6,29.86,SSE,158,9.0,22.0,62,0.00,,,0.00,meteohub,2013-09-28 17:42:00,
2013-09-28 12:47:00,90.9,76.1,29.85,SE,137,8.0,22.0,62,0.00,,,0.00,meteohub,2013-09-28 17:47:00,
2013-09-28 12:52:00,91.2,76.3,29.85,SE,139,16.0,20.0,62,0.00,,,0.00,meteohub,2013-09-28 17:52:00,
2013-09-28 12:57:00,91.6,76.6,29.85,SSE,149,12.0,21.0,62,0.00,,,0.00,meteohub,2013-09-28 17:57:00,
2013-09-28 13:02:00,91.6,76.6,29.84,SSW,195,14.0,21.0,62,0.00,,,0.00,meteohub,2013-09-28 18:02:00,
2013-09-28 13:07:00,91.6,77.2,29.84,SE,139,11.0,22.0,63,0.00,,,0.00,meteohub,2013-09-28 18:07:00,
2013-09-28 13:12:00,91.4,76.5,29.84,ESE,115,8.0,22.0,62,0.00,,,0.00,meteohub,2013-09-28 18:12:00,
2013-09-28 13:17:00,91.9,77.0,29.84,SSE,167,14.0,22.0,62,0.00,,,0.00,meteohub,2013-09-28 18:17:00,
2013-09-28 13:22:00,91.8,76.8,29.84,South,177,6.0,19.0,62,0.00,,,0.00,meteohub,2013-09-28 18:22:00,
2013-09-28 13:27:00,92.1,77.2,29.84,SE,130,11.0,20.0,62,0.00,,,0.00,meteohub,2013-09-28 18:27:00,
2013-09-28 13:32:00,92.3,77.4,29.84,SE,136,14.0,22.0,62,0.00,,,0.00,meteohub,2013-09-28 18:32:00,
2013-09-28 13:37:00,91.8,76.8,29.84,South,181,8.0,22.0,62,0.00,,,0.00,meteohub,2013-09-28 18:37:00,
2013-09-28 13:42:00,91.6,76.6,29.83,ESE,122,14.0,22.0,62,0.00,,,0.00,meteohub,2013-09-28 18:42:00,
2013-09-28 13:47:00,91.9,77.0,29.83,SE,134,9.0,19.0,62,0.00,,,0.00,meteohub,2013-09-28 18:47:00,
2013-09-28 13:52:00,92.5,77.5,29.83,SE,146,13.0,19.0,62,0.00,,,0.00,meteohub,2013-09-28 18:52:00,
2013-09-28 13:57:00,91.9,77.0,29.83,ESE,105,8.0,20.0,62,0.00,,,0.00,meteohub,2013-09-28 18:57:00,
2013-09-28 14:02:00,91.8,76.8,29.82,SE,127,13.0,20.0,62,0.00,,,0.00,meteohub,2013-09-28 19:02:00,
2013-09-28 14:07:00,91.6,77.2,29.82,SE,130,12.0,20.0,63,0.00,,,0.00,meteohub,2013-09-28 19:07:00,
2013-09-28 14:12:00,91.6,77.2,29.82,East,96,12.0,19.0,63,0.00,,,0.00,meteohub,2013-09-28 19:12:00,
2013-09-28 14:17:00,91.8,77.4,29.82,SSE,150,19.0,19.0,63,0.00,,,0.00,meteohub,2013-09-28 19:17:00,
2013-09-28 14:22:00,91.4,76.5,29.82,SSE,159,16.0,20.0,62,0.00,,,0.00,meteohub,2013-09-28 19:22:00,
2013-09-28 14:27:00,90.7,75.4,29.82,ESE,120,9.0,20.0,61,0.00,,,0.00,meteohub,2013-09-28 19:27:00,
2013-09-28 14:32:00,90.0,72.7,29.82,SE,134,10.0,20.0,57,0.00,,,0.00,meteohub,2013-09-28 19:32:00,
2013-09-28 14:37:00,89.8,72.0,29.82,SE,127,10.0,19.0,56,0.00,,,0.00,meteohub,2013-09-28 19:37:00,
2013-09-28 14:42:00,89.6,72.3,29.81,ESE,123,9.0,18.0,57,0.00,,,0.00,meteohub,2013-09-28 19:42:00,
2013-09-28 14:47:00,89.8,72.5,29.81,SE,124,6.0,23.0,57,0.00,,,0.00,meteohub,2013-09-28 19:47:00,
2013-09-28 14:52:00,90.1,73.9,29.81,SE,136,14.0,23.0,59,0.00,,,0.00,meteohub,2013-09-28 19:52:00,
2013-09-28 14:57:00,90.1,73.4,29.81,SE,124,7.0,23.0,58,0.00,,,0.00,meteohub,2013-09-28 19:57:00,
2013-09-28 15:02:00,90.3,74.1,29.81,SE,130,11.0,22.0,59,0.00,,,0.00,meteohub,2013-09-28 20:02:00,
2013-09-28 15:07:00,90.1,73.9,29.81,SE,136,13.0,21.0,59,0.00,,,0.00,meteohub,2013-09-28 20:07:00,
2013-09-28 15:12:00,90.3,74.5,29.80,SE,139,14.0,19.0,60,0.00,,,0.00,meteohub,2013-09-28 20:12:00,
2013-09-28 15:17:00,90.3,74.1,29.80,SE,127,14.0,21.0,59,0.00,,,0.00,meteohub,2013-09-28 20:17:00,
2013-09-28 15:22:00,90.0,73.2,29.80,SE,127,14.0,21.0,58,0.00,,,0.00,meteohub,2013-09-28 20:22:00,
2013-09-28 15:27:00,89.8,73.0,29.80,SE,131,19.0,21.0,58,0.00,,,0.00,meteohub,2013-09-28 20:27:00,
2013-09-28 15:32:00,90.3,73.6,29.80,SE,146,16.0,21.0,58,0.00,,,0.00,meteohub,2013-09-28 20:32:00,
2013-09-28 15:37:00,90.0,73.8,29.79,SE,138,8.0,21.0,59,0.00,,,0.00,meteohub,2013-09-28 20:37:00,
2013-09-28 15:42:00,90.1,73.4,29.79,ESE,122,15.0,21.0,58,0.00,,,0.00,meteohub,2013-09-28 20:42:00,
2013-09-28 15:47:00,90.3,73.6,29.79,SSW,206,5.0,19.0,58,0.00,,,0.00,meteohub,2013-09-28 20:47:00,
2013-09-28 15:52:00,90.9,75.0,29.79,SE,138,13.0,19.0,60,0.00,,,0.00,meteohub,2013-09-28 20:52:00,
2013-09-28 15:57:00,91.0,75.7,29.79,ESE,118,15.0,23.0,61,0.00,,,0.00,meteohub,2013-09-28 20:57:00,
2013-09-28 16:02:00,91.0,76.3,29.79,SSE,153,10.0,23.0,62,0.00,,,0.00,meteohub,2013-09-28 21:02:00,
2013-09-28 16:07:00,90.9,75.6,29.79,SSE,152,16.0,22.0,61,0.00,,,0.00,meteohub,2013-09-28 21:07:00,
2013-09-28 16:12:00,90.9,75.6,29.78,SE,131,17.0,21.0,61,0.00,,,0.00,meteohub,2013-09-28 21:12:00,
2013-09-28 16:17:00,91.0,76.3,29.78,SE,130,12.0,21.0,62,0.00,,,0.00,meteohub,2013-09-28 21:17:00,
2013-09-28 16:22:00,91.0,76.3,29.78,ESE,117,18.0,21.0,62,0.00,,,0.00,meteohub,2013-09-28 21:22:00,
2013-09-28 16:27:00,90.9,75.6,29.79,SE,137,12.0,26.0,61,0.00,,,0.00,meteohub,2013-09-28 21:27:00,
2013-09-28 16:32:00,90.7,75.4,29.79,SE,130,19.0,26.0,61,0.00,,,0.00,meteohub,2013-09-28 21:32:00,
2013-09-28 16:37:00,90.3,75.0,29.78,SE,135,18.0,24.0,61,0.00,,,0.00,meteohub,2013-09-28 21:37:00,
2013-09-28 16:42:00,90.3,74.5,29.78,SE,146,10.0,24.0,60,0.00,,,0.00,meteohub,2013-09-28 21:42:00,
2013-09-28 16:47:00,90.1,73.4,29.78,SE,135,15.0,22.0,58,0.00,,,0.00,meteohub,2013-09-28 21:47:00,
2013-09-28 16:52:00,90.0,73.8,29.78,ESE,121,16.0,22.0,59,0.00,,,0.00,meteohub,2013-09-28 21:52:00,
2013-09-28 16:57:00,90.0,73.2,29.78,SE,146,16.0,22.0,58,0.00,,,0.00,meteohub,2013-09-28 21:57:00,
2013-09-28 17:02:00,89.6,71.8,29.78,SE,131,16.0,22.0,56,0.00,,,0.00,meteohub,2013-09-28 22:02:00,
2013-09-28 17:07:00,89.6,72.3,29.78,ESE,117,12.0,22.0,57,0.00,,,0.00,meteohub,2013-09-28 22:07:00,
2013-09-28 17:12:00,89.8,73.0,29.78,ESE,113,15.0,22.0,58,0.00,,,0.00,meteohub,2013-09-28 22:12:00,
2013-09-28 17:17:00,89.4,72.7,29.78,SE,134,20.0,21.0,58,0.00,,,0.00,meteohub,2013-09-28 22:17:00,
2013-09-28 17:22:00,89.4,72.7,29.78,SE,124,12.0,22.0,58,0.00,,,0.00,meteohub,2013-09-28 22:22:00,
2013-09-28 17:27:00,89.8,73.6,29.78,SE,129,8.0,22.0,59,0.00,,,0.00,meteohub,2013-09-28 22:27:00,
2013-09-28 17:32:00,89.4,73.2,29.78,SE,127,12.0,22.0,59,0.00,,,0.00,meteohub,2013-09-28 22:32:00,
2013-09-28 17:37:00,89.2,72.0,29.78,ESE,114,10.0,20.0,57,0.00,,,0.00,meteohub,2013-09-28 22:37:00,
2013-09-28 17:42:00,89.1,71.8,29.78,SE,138,11.0,20.0,57,0.00,,,0.00,meteohub,2013-09-28 22:42:00,
2013-09-28 17:47:00,88.9,71.6,29.78,SE,127,14.0,22.0,57,0.00,,,0.00,meteohub,2013-09-28 22:47:00,
2013-09-28 17:52:00,88.7,70.5,29.78,SE,146,11.0,22.0,55,0.00,,,0.00,meteohub,2013-09-28 22:52:00,
2013-09-28 17:57:00,88.5,70.3,29.78,SSE,166,12.0,22.0,55,0.00,,,0.00,meteohub,2013-09-28 22:57:00,
2013-09-28 18:02:00,88.3,69.6,29.78,ESE,121,14.0,19.0,54,0.00,,,0.00,meteohub,2013-09-28 23:02:00,
2013-09-28 18:07:00,88.2,70.0,29.78,SE,146,22.0,22.0,55,0.00,,,0.00,meteohub,2013-09-28 23:07:00,
2013-09-28 18:12:00,88.0,68.7,29.78,SE,134,19.0,22.0,53,0.00,,,0.00,meteohub,2013-09-28 23:12:00,
2013-09-28 18:17:00,87.8,69.1,29.78,SSE,150,10.0,22.0,54,0.00,,,0.00,meteohub,2013-09-28 23:17:00,
2013-09-28 18:22:00,87.6,68.4,29.78,SE,134,15.0,22.0,53,0.00,,,0.00,meteohub,2013-09-28 23:22:00,
2013-09-28 18:27:00,87.4,67.6,29.78,SE,125,15.0,22.0,52,0.00,,,0.00,meteohub,2013-09-28 23:27:00,
2013-09-28 18:32:00,87.3,67.5,29.78,SSE,152,11.0,22.0,52,0.00,,,0.00,meteohub,2013-09-28 23:32:00,
2013-09-28 18:37:00,87.1,68.4,29.78,SE,137,12.0,24.0,54,0.00,,,0.00,meteohub,2013-09-28 23:37:00,
2013-09-28 18:42:00,86.7,65.8,29.79,ESE,114,12.0,24.0,50,0.00,,,0.00,meteohub,2013-09-28 23:42:00,
2013-09-28 18:47:00,86.7,64.0,29.79,SE,131,16.0,24.0,47,0.00,,,0.00,meteohub,2013-09-28 23:47:00,
2013-09-28 18:52:00,86.5,62.1,29.79,SE,139,14.0,23.0,44,0.00,,,0.00,meteohub,2013-09-28 23:52:00,
2013-09-28 18:57:00,86.2,61.7,29.80,SE,146,13.0,21.0,44,0.00,,,0.00,meteohub,2013-09-28 23:57:00,
2013-09-28 19:02:00,86.0,58.8,29.80,ESE,121,13.0,21.0,40,0.00,,,0.00,meteohub,2013-09-29 00:02:00,
2013-09-28 19:07:00,85.6,56.3,29.80,ESE,121,18.0,22.0,37,0.00,,,0.00,meteohub,2013-09-29 00:07:00,
2013-09-28 19:12:00,85.5,54.7,29.81,SE,133,17.0,22.0,35,0.00,,,0.00,meteohub,2013-09-29 00:12:00,
2013-09-28 19:17:00,85.3,50.4,29.81,SE,132,11.0,22.0,30,0.00,,,0.00,meteohub,2013-09-29 00:17:00,
2013-09-28 19:22:00,84.9,48.2,29.81,SE,124,16.0,19.0,28,0.00,,,0.00,meteohub,2013-09-29 00:22:00,
2013-09-28 19:27:00,84.7,42.8,29.81,ESE,121,11.0,20.0,23,0.00,,,0.00,meteohub,2013-09-29 00:27:00,
2013-09-28 19:32:00,84.7,43.9,29.82,SSE,158,13.0,20.0,24,0.00,,,0.00,meteohub,2013-09-29 00:32:00,
2013-09-28 19:37:00,84.6,37.8,29.82,ESE,121,14.0,20.0,19,0.00,,,0.00,meteohub,2013-09-29 00:37:00,
2013-09-28 19:42:00,84.4,33.3,29.82,ESE,119,16.0,20.0,16,0.00,,,0.00,meteohub,2013-09-29 00:42:00,
2013-09-28 19:47:00,84.2,28.0,29.83,ESE,121,14.0,20.0,13,0.00,,,0.00,meteohub,2013-09-29 00:47:00,
2013-09-28 19:52:00,84.0,25.9,29.83,SE,143,11.0,18.0,12,0.00,,,0.00,meteohub,2013-09-29 00:52:00,
2013-09-28 19:57:00,84.0,27.9,29.83,SE,134,9.0,18.0,13,0.00,,,0.00,meteohub,2013-09-29 00:57:00,
2013-09-28 20:02:00,84.0,33.1,29.84,ESE,111,13.0,18.0,16,0.00,,,0.00,meteohub,2013-09-29 01:02:00,
2013-09-28 20:07:00,83.8,32.9,29.84,SE,132,10.0,16.0,16,0.00,,,0.00,meteohub,2013-09-29 01:07:00,
2013-09-28 20:12:00,83.8,31.3,29.83,ESE,115,7.0,17.0,15,0.00,,,0.00,meteohub,2013-09-29 01:12:00,
2013-09-28 20:18:00,83.7,25.7,29.84,ESE,117,7.0,20.0,12,0.00,,,0.00,meteohub,2013-09-29 01:18:00,
2013-09-28 20:23:00,83.5,18.7,29.84,SE,136,6.0,20.0,9,0.00,,,0.00,meteohub,2013-09-29 01:23:00,
2013-09-28 20:28:00,83.5,12.9,29.84,ESE,120,8.0,16.0,7,0.00,,,0.00,meteohub,2013-09-29 01:28:00,
2013-09-28 20:33:00,83.3,9.3,29.84,ESE,105,11.0,14.0,6,0.00,,,0.00,meteohub,2013-09-29 01:33:00,
2013-09-28 20:38:00,83.3,0.5,29.84,SE,138,7.0,14.0,4,0.00,,,0.00,meteohub,2013-09-29 01:38:00,
2013-09-28 20:43:00,83.1,-5.6,29.85,SE,127,9.0,14.0,3,0.00,,,0.00,meteohub,2013-09-29 01:43:00,
2013-09-28 20:48:00,83.1,-13.9,29.85,SE,134,1.0,14.0,2,0.00,,,0.00,meteohub,2013-09-29 01:48:00,
2013-09-28 20:54:00,83.1,-13.9,29.85,SE,138,7.0,14.0,2,0.00,,,0.00,meteohub,2013-09-29 01:54:00,
2013-09-28 20:59:00,82.9,-14.1,29.85,SE,143,8.0,14.0,2,0.00,,,0.00,meteohub,2013-09-29 01:59:00,
2013-09-28 21:04:00,82.9,-27.2,29.86,SE,124,4.0,13.0,1,0.00,,,0.00,meteohub,2013-09-29 02:04:00,
2013-09-28 21:09:00,82.8,-27.4,29.85,SE,133,6.0,11.0,1,0.00,,,0.00,meteohub,2013-09-29 02:09:00,
2013-09-28 21:14:00,82.8,82.8,29.85,SE,141,5.0,11.0,0,0.00,,,0.00,meteohub,2013-09-29 02:14:00,
2013-09-28 21:19:00,82.6,82.6,29.86,SE,124,6.0,12.0,0,0.00,,,0.00,meteohub,2013-09-29 02:19:00,
2013-09-28 21:24:00,82.6,82.6,29.86,SE,124,0.0,12.0,0,0.00,,,0.00,meteohub,2013-09-29 02:24:00,
2013-09-28 21:29:00,82.6,82.6,29.86,ESE,107,5.0,12.0,0,0.00,,,0.00,meteohub,2013-09-29 02:29:00,
2013-09-28 21:34:00,82.4,82.4,29.86,SE,127,7.0,12.0,0,0.00,,,0.00,meteohub,2013-09-29 02:34:00,
2013-09-28 21:39:00,82.4,82.4,29.86,SE,134,4.0,11.0,0,0.00,,,0.00,meteohub,2013-09-29 02:39:00,
2013-09-28 21:44:00,82.4,82.4,29.86,SE,130,4.0,11.0,0,0.00,,,0.00,meteohub,2013-09-29 02:44:00,
2013-09-28 21:49:00,82.2,82.2,29.87,SE,130,7.0,11.0,0,0.00,,,0.00,meteohub,2013-09-29 02:49:00,
2013-09-28 21:55:00,82.2,82.2,29.87,ESE,121,7.0,11.0,0,0.00,,,0.00,meteohub,2013-09-29 02:55:00,
2013-09-28 22:00:00,82.2,82.2,29.88,SE,124,7.0,11.0,0,0.00,,,0.00,meteohub,2013-09-29 03:00:00,
2013-09-28 22:05:00,82.2,82.2,29.87,ESE,123,8.0,11.0,0,0.00,,,0.00,meteohub,2013-09-29 03:05:00,
2013-09-28 22:10:00,82.2,82.2,29.87,SSE,164,7.0,12.0,0,0.00,,,0.00,meteohub,2013-09-29 03:10:00,
2013-09-28 22:15:00,82.2,82.2,29.88,South,176,4.0,12.0,0,0.00,,,0.00,meteohub,2013-09-29 03:15:00,
2013-09-28 22:20:00,82.0,82.0,29.88,ESE,108,4.0,12.0,0,0.00,,,0.00,meteohub,2013-09-29 03:20:00,
2013-09-28 22:25:00,82.0,82.0,29.88,ESE,114,6.0,12.0,0,0.00,,,0.00,meteohub,2013-09-29 03:25:00,
2013-09-28 22:30:00,81.9,81.9,29.88,ESE,119,6.0,10.0,0,0.00,,,0.00,meteohub,2013-09-29 03:30:00,
2013-09-28 22:35:00,81.7,81.7,29.88,SE,135,5.0,9.0,0,0.00,,,0.00,meteohub,2013-09-29 03:35:00,
2013-09-28 22:40:00,81.7,81.7,29.88,SE,132,6.0,9.0,0,0.00,,,0.00,meteohub,2013-09-29 03:40:00,
2013-09-28 22:45:00,81.7,81.7,29.88,SE,133,6.0,10.0,0,0.00,,,0.00,meteohub,2013-09-29 03:45:00,
2013-09-28 22:51:00,81.7,81.7,29.88,SE,132,5.0,10.0,0,0.00,,,0.00,meteohub,2013-09-29 03:51:00,
2013-09-28 22:56:00,81.5,81.5,29.89,ESE,121,7.0,10.0,0,0.00,,,0.00,meteohub,2013-09-29 03:56:00,
2013-09-28 23:01:00,81.3,81.3,29.89,East,95,5.0,8.0,0,0.00,,,0.00,meteohub,2013-09-29 04:01:00,
2013-09-28 23:02:00,81.3,81.3,29.88,ESE,117,6.0,8.0,0,0.00,,,0.00,meteohub,2013-09-29 04:02:00,
2013-09-28 23:07:00,81.3,81.3,29.88,SE,124,6.0,8.0,0,0.00,,,0.00,meteohub,2013-09-29 04:07:00,
2013-09-28 23:12:00,81.1,81.1,29.88,SE,130,6.0,8.0,0,0.00,,,0.00,meteohub,2013-09-29 04:12:00,
2013-09-28 23:17:00,81.1,81.1,29.88,ESE,113,7.0,10.0,0,0.00,,,0.00,meteohub,2013-09-29 04:17:00,
2013-09-28 23:22:00,81.1,81.1,29.88,SE,143,6.0,12.0,0,0.00,,,0.00,meteohub,2013-09-29 04:22:00,
2013-09-28 23:27:00,81.0,81.0,29.88,ESE,121,6.0,12.0,0,0.00,,,0.00,meteohub,2013-09-29 04:27:00,
2013-09-28 23:32:00,81.0,81.0,29.88,SE,132,5.0,12.0,0,0.00,,,0.00,meteohub,2013-09-29 04:32:00,
2013-09-28 23:37:00,81.0,81.0,29.88,SE,134,2.0,10.0,0,0.00,,,0.00,meteohub,2013-09-29 04:37:00,
2013-09-28 23:42:00,81.0,81.0,29.88,SE,141,3.0,10.0,0,0.00,,,0.00,meteohub,2013-09-29 04:42:00,
2013-09-28 23:47:00,80.8,80.8,29.88,SSE,157,4.0,8.0,0,0.00,,,0.00,meteohub,2013-09-29 04:47:00,
2013-09-28 23:52:00,80.8,80.8,29.88,SE,141,7.0,7.0,0,0.00,,,0.00,meteohub,2013-09-29 04:52:00,
2013-09-28 23:57:00,80.8,80.8,29.88,SE,130,3.0,7.0,0,0.00,,,0.00,meteohub,2013-09-29 04:57:00,